ADDS METAR Data INFO
IDs: Format: Raw Decoded Include TAF

Data at: 2055 UTC 24 Jun 2017

KEBG 242035Z AUTO 08011KT 10SM RA SCT080 BKN110 34/22 A2994 RMK AO2 LTG DSNT NE AND E T03430217
KEBG 242015Z AUTO 10016G20KT 10SM SCT055 35/22 A2994 RMK AO2 LTG DSNT N AND NE T03530216
KEBG 241955Z AUTO 10011G16KT 10SM BKN055 BKN070 37/21 A2994 RMK AO2 T03650206
KEBG 241935Z AUTO 10012G17KT 10SM OVC055 36/20 A2995 RMK AO2 LTG DSNT N AND NE T03610201
KEBG 241915Z AUTO 12007KT 10SM BKN050 BKN065 BKN090 37/19 A2995 RMK AO2 LTG DSNT NE T03650190
KEBG 241855Z AUTO 20004KT 10SM SCT050 SCT085 SCT100 37/19 A2996 RMK AO2 T03720193
KEBG 241835Z AUTO 13008KT 080V140 10SM SCT050 SCT060 BKN085 36/20 A2996 RMK AO2 T03620204
KEBG 241815Z AUTO 15003KT 10SM SCT050 SCT065 BKN100 36/20 A2997 RMK AO2 T03630201
KEBG 241755Z AUTO 12004KT 10SM SCT050 BKN065 BKN090 35/21 A2997 RMK AO2 6//// T03540207
KEBG 241735Z AUTO 14008KT 10SM SCT044 SCT050 BKN065 36/21 A2997 RMK AO2 T03610213
KEBG 241715Z AUTO 14009G16KT 10SM BKN044 BKN050 BKN065 36/21 A2996 RMK AO2 T03570213
KEBG 241655Z AUTO 11006G14KT 10SM SCT044 SCT065 36/21 A2996 RMK AO2 T03620208
KEBG 241635Z AUTO 16008G15KT 130V200 10SM SCT036 SCT044 35/20 A2996 RMK AO2 T03540204
KEBG 241615Z AUTO 16011G15KT 10SM SCT036 SCT047 BKN065 35/21 A2996 RMK AO2 LTG DSNT NE T03460211
KEBG 241555Z AUTO 14012KT 10SM BKN034 BKN044 BKN055 35/23 A2995 RMK AO2 T03490225
KEBG 241535Z AUTO 12009G18KT 10SM SCT026 BKN032 BKN045 34/22 A2995 RMK AO2 T03440219
KEBG 241515Z AUTO 13012G17KT 10SM BKN027 BKN045 BKN050 33/23 A2994 RMK AO2 T03250226
KEBG 241455Z AUTO 12011G18KT 10SM SCT024 SCT030 SCT042 33/23 A2994 RMK AO2 T03270230
KEBG 241435Z AUTO 12013KT 10SM BKN020 BKN034 32/24 A2994 RMK AO2 T03220236
KEBG 241415Z AUTO 14012G18KT 10SM BKN018 31/24 A2994 RMK AO2 T03140241
KEBG 241355Z AUTO 13013KT 10SM BKN016 BKN022 31/25 A2994 RMK AO2 T03080245
KEBG 241335Z AUTO 12011KT 10SM SCT014 30/25 A2994 RMK AO2 T03020246
KEBG 241315Z AUTO 12011KT 10SM CLR 30/25 A2994 RMK AO2 T02960249
KEBG 241255Z AUTO 11008KT 7SM SCT014 SCT023 SCT029 29/26 A2993 RMK AO2 T02870255
KEBG 241235Z AUTO 08005KT 5SM BR SCT014 SCT023 BKN029 28/26 A2993 RMK AO2 T02770255
KEBG 241215Z AUTO 08004KT 5SM BR SCT026 SCT032 SCT055 28/25 A2992 RMK AO2 T02750252
KEBG 241155Z AUTO 11004KT 5SM BR SCT030 OVC055 27/25 A2991 RMK AO2 70002 T02730251 10282 20270
KEBG 241135Z AUTO 11003KT 7SM BKN030 BKN037 OVC055 27/25 A2990 RMK AO2 T02730250
KEBG 241115Z AUTO 00000KT 7SM SCT027 BKN033 BKN040 27/25 A2990 RMK AO2 T02720250
KEBG 241055Z AUTO 11004KT 7SM SCT015 SCT022 BKN044 27/25 A2989 RMK AO2 T02710247
KEBG 241035Z AUTO 11004KT 7SM SCT015 BKN031 OVC044 27/25 A2989 RMK AO2 T02730250
KEBG 241015Z AUTO 12003KT 7SM SCT018 SCT028 BKN034 27/25 A2988 RMK AO2 T02710250
KEBG 240955Z AUTO 12004KT 7SM SCT035 SCT042 SCT048 27/25 A2987 RMK AO2 T02700247
KEBG 240935Z AUTO 14004KT 7SM BKN031 BKN037 OVC048 27/25 A2987 RMK AO2 T02700246
KEBG 240915Z AUTO 14004KT 7SM OVC034 27/25 A2987 RMK AO2 T02720248
KEBG 240850Z AUTO 14004KT 7SM SCT038 27/25 A2987 RMK AO2 T02720247
KEBG 240835Z AUTO 14004KT 7SM CLR 28/25 A2987 RMK AO2 T02750248
KEBG 240815Z AUTO 14005KT 7SM CLR 28/25 A2987 RMK AO2 T02750249
KEBG 240755Z AUTO 13005KT 7SM CLR 28/25 A2987 RMK AO2 T02750247
KEBG 240735Z AUTO 12005KT 10SM CLR 28/25 A2988 RMK AO2 T02760245
KEBG 240715Z AUTO 12004KT 10SM CLR 28/25 A2989 RMK AO2 T02800245
KEBG 240655Z AUTO 00000KT 10SM CLR 28/25 A2989 RMK AO2 T02800246
KEBG 240635Z AUTO 13005KT 10SM CLR 28/25 A2988 RMK AO2 T02800245
KEBG 240615Z AUTO 14005KT 10SM CLR 28/25 A2988 RMK AO2 T02810246
KEBG 240555Z AUTO 14005KT 10SM CLR 28/25 A2987 RMK AO2 T02820245 10365 20282 404010281
KEBG 240535Z AUTO 14006KT 10SM CLR 29/25 A2987 RMK AO2 T02860246
KEBG 240515Z AUTO 14006KT 10SM CLR 29/25 A2987 RMK AO2 T02900246
KEBG 240455Z AUTO 14006KT 10SM CLR 29/25 A2987 RMK AO2 T02930246
KEBG 240435Z AUTO 14008KT 10SM CLR 29/25 A2985 RMK AO2 T02920245
KEBG 240415Z AUTO 14008KT 10SM CLR 30/24 A2984 RMK AO2 T02960244
KEBG 240355Z AUTO 14010KT 10SM CLR 30/24 A2983 RMK AO2 T02980242
KEBG 240335Z AUTO 14009KT 10SM CLR 30/24 A2983 RMK AO2 T03000240
KEBG 240315Z AUTO 15009KT 10SM CLR 30/24 A2982 RMK AO2 T03040238
KEBG 240255Z AUTO 14010KT 10SM CLR 31/24 A2981 RMK AO2 T03050237
KEBG 240235Z AUTO 14010KT 10SM CLR 31/23 A2980 RMK AO2 T03100234
KEBG 240215Z AUTO 15010G16KT 10SM CLR 31/23 A2978 RMK AO2 T03120230
KEBG 240155Z AUTO 14012G19KT 10SM CLR 32/23 A2977 RMK AO2 T03170228
KEBG 240135Z AUTO 13016KT 10SM CLR 32/23 A2976 RMK AO2 T03220230
KEBG 240115Z AUTO 14013G16KT 10SM CLR 33/23 A2975 RMK AO2 T03300225
KEBG 240055Z AUTO 13015G21KT 10SM CLR 34/22 A2974 RMK AO2 T03370221
KEBG 240035Z AUTO 13015G20KT 10SM CLR 35/21 A2974 RMK AO2 T03490214
KEBG 240015Z AUTO 14014KT 10SM CLR 36/21 A2973 RMK AO2 T03580205
KEBG 232355Z AUTO 13016KT 10SM CLR 37/20 A2972 RMK AO2 T03660200 10401 20366
KEBG 232335Z AUTO 14011KT 10SM CLR 38/20 A2972 RMK AO2 T03750195
KEBG 232315Z AUTO 14012G17KT 10SM CLR 38/19 A2971 RMK AO2 T03770193
KEBG 232255Z AUTO 14013G18KT 10SM CLR 39/19 A2971 RMK AO2 T03850185
KEBG 232235Z AUTO 13011G19KT 10SM CLR 39/18 A2971 RMK AO2 T03880180
KEBG 232215Z AUTO 14010G19KT 10SM CLR 39/18 A2971 RMK AO2 T03900181
KEBG 232155Z AUTO 14010G17KT 10SM CLR 39/18 A2972 RMK AO2 T03910182
KEBG 232135Z AUTO 12010G20KT 10SM CLR 39/19 A2972 RMK AO2 T03910190
KEBG 232115Z AUTO 13013G20KT 10SM CLR 39/20 A2972 RMK AO2 T03930196
KEBG 232055Z AUTO 15013G17KT 10SM CLR 40/20 A2973 RMK AO2 T03950198
KEBG 232035Z AUTO 13010G15KT 10SM CLR 40/20 A2974 RMK AO2 T03950195
KEBG 232015Z AUTO 17010G17KT 130V190 10SM CLR 39/19 A2974 RMK AO2 T03920193
KEBG 231955Z AUTO 16009G18KT 130V190 10SM CLR 39/19 A2974 RMK AO2 T03920188
KEBG 231935Z AUTO 14008G21KT 10SM CLR 39/19 A2975 RMK AO2 T03910194
KEBG 231915Z AUTO 16012G17KT 10SM CLR 39/19 A2975 RMK AO2 T03900191
KEBG 231855Z AUTO 16013G19KT 10SM CLR 39/19 A2976 RMK AO2 T03860186
KEBG 231835Z AUTO 17013G22KT 10SM CLR 38/19 A2976 RMK AO2 T03820189
KEBG 231815Z AUTO 19012G17KT 10SM CLR 38/19 A2977 RMK AO2 T03840185
KEBG 231755Z AUTO 14011G17KT 10SM CLR 37/19 A2977 RMK AO2 60002 T03740189 10376 20283
KEBG 231735Z AUTO 14012KT 10SM CLR 37/20 A2977 RMK AO2 T03740195
KEBG 231715Z AUTO 14016G19KT 10SM CLR 37/20 A2976 RMK AO2 T03740203
KEBG 231655Z AUTO 14011G17KT 10SM CLR 37/20 A2976 RMK AO2 T03670204
KEBG 231635Z AUTO 14014G18KT 10SM CLR 36/21 A2975 RMK AO2 T03640210
KEBG 231615Z AUTO 18013G19KT 10SM CLR 36/21 A2976 RMK AO2 T03610210
KEBG 231555Z AUTO 16013G18KT 10SM CLR 35/21 A2976 RMK AO2 T03540206
KEBG 231535Z AUTO 17013G19KT 10SM CLR 35/21 A2976 RMK AO2 T03480214
KEBG 231515Z AUTO 17014G23KT 10SM CLR 34/21 A2976 RMK AO2 T03400213
KEBG 231455Z AUTO 15014KT 10SM CLR 34/22 A2976 RMK AO2 60002 T03360220
KEBG 231435Z AUTO 16011G19KT 10SM CLR 33/23 A2976 RMK AO2 T03260225
KEBG 231415Z AUTO 16014KT 10SM SCT025 32/23 A2976 RMK AO2 T03190230
KEBG 231355Z AUTO 15013KT 10SM CLR 31/24 A2976 RMK AO2 P0002 T03110235
KEBG 231335Z AUTO 15011G17KT 7SM SCT020 31/24 A2976 RMK AO2 P0002 T03050236
KEBG 231315Z AUTO 16010KT 10SM CLR 30/24 A2976 RMK AO2 T03000236
KEBG 231255Z AUTO 15010KT 10SM CLR 29/24 A2975 RMK AO2 T02940237
KEBG 231235Z AUTO 15010KT 10SM CLR 29/24 A2974 RMK AO2 T02880237
KEBG 231215Z AUTO 15011KT 10SM SCT019 29/24 A2974 RMK AO2 T02850237
KEBG 231155Z AUTO 15011G16KT 10SM SCT018 28/24 A2973 RMK AO2 T02820237 10290 20281
KEBG 231135Z AUTO 15008KT 10SM BKN018 28/24 A2972 RMK AO2 T02810239
KEBG 231115Z AUTO 15011G15KT 10SM BKN018 28/24 A2972 RMK AO2 T02820239
KEBG 231055Z AUTO 16011G15KT 10SM OVC018 29/24 A2972 RMK AO2 T02850239
KEBG 231035Z AUTO 16010G16KT 10SM OVC018 29/24 A2971 RMK AO2 T02860238
KEBG 231015Z AUTO 16012G19KT 10SM OVC018 29/24 A2971 RMK AO2 T02870240
KEBG 230955Z AUTO 16014G19KT 10SM OVC018 29/24 A2971 RMK AO2 T02880240
KEBG 230935Z AUTO 16009KT 10SM OVC018 29/24 A2971 RMK AO2 T02880242
KEBG 230915Z AUTO 16010G16KT 10SM OVC018 29/24 A2970 RMK AO2 T02880242


Page loaded:  20:55 UTC  |   01:55 PM Pacific  |   02:55 PM Mountain  |   03:55 PM Central  |   04:55 PM Eastern

 

ADVISORIES

FORECASTS

FORECASTS

OBSERVATIONS

USER TOOLS

ABOUT US